Main page
METAR-TAF:

METAR-TAF

Airports :

Mytilene-Lesbos, Greece

Mytilene International Airport

latitude: 39-04N, longitude: 026-36E, elevation: 3 m

Current weather observation

The report was made 33 minutes ago, at 09:20 UTC
Wind 3 kt from variable directions
Temperature 21°C
Humidity 49%
Pressure 1019 hPa
Visibility 10 km or more
no clouds below 1500 m and no cumulonimbus

METAR: LGMT 190920Z VRB03KT CAVOK 21/10 Q1019

Time: 12:53 (09:53 UTC)

Forecast

The report was made 1 hour and 53 minutes ago, at 08:00 UTC
Forecast valid from 19 at 09 UTC to 19 at 18 UTC
Wind 10 kt from the North
Visibility 10 km or more
Few clouds at a height of 2500 ft
Temporary
from 19 at 09 UTC to 19 at 18 UTC
Wind 12 kt from the North with gusts up to 22 kt

TAF: LGMT 190800Z 1909/1918 01010KT 9999 FEW025 TEMPO 1909/1918 01012G22KT

Weather observations and forecasts of more than 4000 airports (METAR and TAF reports).

The available stations are represented by yellow and red dots on the map.

Hover mouse over dot to see the name of the station.

Then click to see weather observations and forecasts.

To change the map : click on the green buttons with a black cross to zoom in, on the green button with a dash to zoom out, or on the green arrows for adjacent maps.


METAR-TAF: